Time;durP1;ratioP1;P1;durP2;ratioP2;P2;SDS_P1;SDS_P2;PMS_P1;PMS_P2;Temp;Humidity;BMP_temperature;BMP_pressure;BME280_temperature;BME280_humidity;BME280_pressure;Samples;Min_cycle;Max_cycle;Signal;HPM_P1;HPM_P2
2023/07/26 00:00:29;;;;;;;21.83;19.63;;;13.80;99.90;;;;;;4979393;28;20530;-72
2023/07/26 00:02:57;;;;;;;22.20;19.90;;;13.80;99.90;;;;;;4991316;28;21232;-71
2023/07/26 00:05:25;;;;;;;23.23;19.50;;;13.80;99.90;;;;;;4997601;28;20540;-71
2023/07/26 00:07:55;;;;;;;23.10;20.80;;;13.80;99.90;;;;;;4995173;28;20901;-71
2023/07/26 00:10:23;;;;;;;24.20;21.00;;;13.80;99.90;;;;;;4987437;28;20454;-70
2023/07/26 00:12:50;;;;;;;24.83;20.47;;;13.80;99.90;;;;;;4986548;28;20478;-71
2023/07/26 00:15:18;;;;;;;25.30;21.50;;;13.90;99.90;;;;;;4977317;28;20445;-70
2023/07/26 00:17:47;;;;;;;25.10;22.60;;;13.80;99.90;;;;;;4976496;28;20880;-71
2023/07/26 00:20:15;;;;;;;25.03;22.50;;;13.90;99.90;;;;;;4979825;28;20448;-69
2023/07/26 00:22:43;;;;;;;26.27;22.03;;;13.90;99.90;;;;;;4987443;28;20497;-69
2023/07/26 00:25:12;;;;;;;25.07;22.30;;;13.90;99.90;;;;;;4980590;28;20516;-69
2023/07/26 00:27:40;;;;;;;24.63;21.77;;;13.90;99.90;;;;;;4976380;28;20504;-66
2023/07/26 00:30:09;;;;;;;24.97;22.47;;;13.90;99.90;;;;;;4979152;28;20451;-71
2023/07/26 00:32:37;;;;;;;24.87;22.20;;;14.00;99.90;;;;;;4980882;28;20483;-71
2023/07/26 00:35:06;;;;;;;25.30;22.40;;;14.00;99.90;;;;;;4980753;28;20476;-70
2023/07/26 00:37:34;;;;;;;25.13;22.40;;;13.90;99.90;;;;;;4990469;28;20599;-74
2023/07/26 00:40:02;;;;;;;24.70;22.30;;;14.00;99.90;;;;;;4981892;28;20446;-71
2023/07/26 00:42:32;;;;;;;25.47;22.80;;;13.90;99.90;;;;;;4979980;28;20480;-67
2023/07/26 00:45:02;;;;;;;26.53;23.30;;;13.90;99.90;;;;;;4977439;28;21223;-69
2023/07/26 00:47:30;;;;;;;26.37;23.47;;;13.90;99.90;;;;;;4986817;28;20557;-68
2023/07/26 00:49:58;;;;;;;26.23;23.60;;;13.90;99.90;;;;;;4973558;28;20458;-69
2023/07/26 00:52:26;;;;;;;27.60;23.97;;;13.90;99.90;;;;;;4983781;28;20902;-68
2023/07/26 00:54:55;;;;;;;22.60;20.37;;;13.90;99.90;;;;;;4982377;28;20452;-69
2023/07/26 00:57:23;;;;;;;26.30;23.03;;;13.90;99.90;;;;;;4976213;28;20448;-69
2023/07/26 00:59:53;;;;;;;24.80;21.20;;;13.90;99.90;;;;;;4972719;28;20506;-70
2023/07/26 01:02:21;;;;;;;26.93;21.87;;;13.90;99.90;;;;;;4979960;28;20807;-70
2023/07/26 01:04:50;;;;;;;26.47;23.70;;;13.90;99.90;;;;;;4987167;28;20451;-71
2023/07/26 01:07:24;;;;;;;23.67;21.27;;;13.90;99.90;;;;;;4982134;28;20478;-71
2023/07/26 01:10:02;;;;;;;24.10;21.37;;;13.90;99.90;;;;;;4981048;28;20870;-71
2023/07/26 01:12:34;;;;;;;23.20;20.43;;;13.90;99.90;;;;;;4988448;28;20534;-71
2023/07/26 01:15:07;;;;;;;24.77;21.70;;;13.90;99.90;;;;;;4990921;28;20527;-71
2023/07/26 01:17:35;;;;;;;22.03;20.00;;;13.80;99.90;;;;;;5000525;28;20549;-69
2023/07/26 01:20:03;;;;;;;22.93;20.50;;;13.80;99.90;;;;;;4984273;28;21071;-69
2023/07/26 01:22:33;;;;;;;20.70;18.50;;;13.80;99.90;;;;;;4998441;28;20466;-68
2023/07/26 01:25:01;;;;;;;17.53;15.93;;;13.80;99.90;;;;;;4986726;28;20461;-69
2023/07/26 01:27:29;;;;;;;23.13;16.60;;;13.70;99.90;;;;;;4972289;28;20510;-67
2023/07/26 01:29:57;;;;;;;18.43;16.53;;;13.70;99.90;;;;;;4981422;28;20507;-69
2023/07/26 01:32:27;;;;;;;19.40;17.30;;;13.60;99.90;;;;;;4978184;28;20504;-69
2023/07/26 01:34:55;;;;;;;18.37;16.47;;;13.60;99.90;;;;;;4973620;28;20451;-69
2023/07/26 01:37:24;;;;;;;18.73;16.93;;;13.60;99.90;;;;;;4976932;28;20934;-70
2023/07/26 01:39:53;;;;;;;18.17;16.27;;;13.60;99.90;;;;;;4986622;28;20516;-70
2023/07/26 01:42:21;;;;;;;18.83;17.03;;;13.60;99.90;;;;;;4973779;28;20501;-70
2023/07/26 01:44:49;;;;;;;22.47;18.37;;;13.60;99.90;;;;;;4972826;28;20541;-70
2023/07/26 01:47:17;;;;;;;19.07;17.20;;;13.60;99.90;;;;;;4977499;28;20490;-72
2023/07/26 01:49:45;;;;;;;23.87;18.33;;;13.60;99.90;;;;;;4990367;28;20589;-71
2023/07/26 01:52:13;;;;;;;18.50;16.50;;;13.60;99.90;;;;;;4984406;28;20471;-71
2023/07/26 01:54:41;;;;;;;15.10;13.60;;;13.60;99.90;;;;;;4980746;28;20465;-70
2023/07/26 01:57:10;;;;;;;15.37;13.90;;;13.60;99.90;;;;;;4978784;28;20448;-70
2023/07/26 01:59:38;;;;;;;16.23;14.83;;;13.50;99.90;;;;;;4972476;28;21103;-71
2023/07/26 02:02:06;;;;;;;14.23;12.93;;;13.50;99.90;;;;;;4970457;28;21056;-70
2023/07/26 02:04:35;;;;;;;15.53;13.90;;;13.50;99.90;;;;;;4970121;28;20444;-71
2023/07/26 02:07:03;;;;;;;15.47;13.10;;;13.50;99.90;;;;;;4988980;28;20553;-71
2023/07/26 02:09:31;;;;;;;16.17;14.63;;;13.50;99.90;;;;;;4976853;28;20492;-68
2023/07/26 02:11:58;;;;;;;15.07;13.50;;;13.40;99.90;;;;;;4969123;28;20476;-69
2023/07/26 02:14:28;;;;;;;14.30;12.43;;;13.50;99.90;;;;;;4986071;28;20451;-69
2023/07/26 02:16:56;;;;;;;13.40;11.90;;;13.50;99.90;;;;;;4982091;28;20452;-69
2023/07/26 02:19:24;;;;;;;13.97;12.30;;;13.40;99.90;;;;;;4984672;28;20507;-69
2023/07/26 02:21:52;;;;;;;13.13;11.93;;;13.40;99.90;;;;;;4985775;28;20512;-69
2023/07/26 02:24:19;;;;;;;13.10;11.80;;;13.40;99.90;;;;;;4980336;28;20442;-69
2023/07/26 02:26:47;;;;;;;15.60;12.57;;;13.40;99.90;;;;;;4987129;28;20482;-69
2023/07/26 02:29:15;;;;;;;12.10;10.80;;;13.40;99.90;;;;;;4970730;28;20486;-69
2023/07/26 02:31:44;;;;;;;12.27;11.17;;;13.40;99.90;;;;;;4982925;28;21091;-69
2023/07/26 02:34:12;;;;;;;11.83;10.73;;;13.40;99.90;;;;;;4976226;28;20479;-68
2023/07/26 02:36:40;;;;;;;12.67;11.50;;;13.40;99.90;;;;;;4983283;28;20493;-70
2023/07/26 02:39:08;;;;;;;11.93;10.73;;;13.30;99.90;;;;;;4982743;28;20451;-68
2023/07/26 02:41:36;;;;;;;11.03;10.10;;;13.30;99.90;;;;;;4975805;28;20774;-69
2023/07/26 02:44:04;;;;;;;10.03;9.17;;;13.30;99.90;;;;;;4981861;28;20449;-69
2023/07/26 02:46:32;;;;;;;11.83;10.40;;;13.30;99.90;;;;;;4978519;28;20533;-67
2023/07/26 02:49:01;;;;;;;10.47;9.57;;;13.30;99.90;;;;;;4973557;28;20538;-70
2023/07/26 02:51:29;;;;;;;10.07;9.17;;;13.30;99.90;;;;;;4977097;28;20458;-69
2023/07/26 02:53:57;;;;;;;10.33;9.23;;;13.30;99.90;;;;;;4979077;28;20497;-68
2023/07/26 02:56:25;;;;;;;10.23;9.23;;;13.20;99.90;;;;;;4975540;28;20460;-69
2023/07/26 02:58:53;;;;;;;10.03;8.80;;;13.10;99.90;;;;;;4986549;28;20456;-69
2023/07/26 03:01:21;;;;;;;10.63;7.70;;;13.10;99.90;;;;;;4977008;28;20813;-70
2023/07/26 03:03:49;;;;;;;8.20;7.37;;;13.10;99.90;;;;;;4974942;28;20470;-70
2023/07/26 03:06:18;;;;;;;8.60;7.60;;;13.10;99.90;;;;;;4972595;28;20449;-70
2023/07/26 03:08:46;;;;;;;8.20;7.60;;;13.10;99.90;;;;;;4974836;28;20471;-70
2023/07/26 03:11:14;;;;;;;8.20;7.50;;;13.10;99.90;;;;;;4983176;28;20450;-71
2023/07/26 03:13:42;;;;;;;7.83;6.80;;;13.10;99.90;;;;;;4979151;28;20481;-71
2023/07/26 03:16:10;;;;;;;9.90;7.50;;;13.10;99.90;;;;;;4980079;28;20453;-71
2023/07/26 03:18:38;;;;;;;8.20;7.43;;;13.00;99.90;;;;;;4982036;28;20452;-71
2023/07/26 03:21:06;;;;;;;8.13;7.30;;;13.00;99.90;;;;;;4977235;28;20503;-71
2023/07/26 03:23:36;;;;;;;8.40;7.47;;;13.00;99.90;;;;;;4988256;28;20845;-71
2023/07/26 03:26:04;;;;;;;7.03;6.43;;;13.00;99.90;;;;;;4986200;28;20453;-71
2023/07/26 03:28:32;;;;;;;8.20;7.27;;;12.90;99.90;;;;;;4980006;28;20529;-69
2023/07/26 03:31:00;;;;;;;7.80;7.10;;;12.90;99.90;;;;;;4982647;28;20452;-71
2023/07/26 03:33:28;;;;;;;8.20;7.40;;;12.90;99.90;;;;;;4981574;28;20465;-71
2023/07/26 03:35:56;;;;;;;7.73;7.03;;;12.90;99.90;;;;;;4979242;28;20451;-71
2023/07/26 03:38:24;;;;;;;8.90;7.97;;;12.90;99.90;;;;;;4982829;28;20452;-71
2023/07/26 03:40:53;;;;;;;9.63;8.83;;;12.90;99.90;;;;;;4984691;28;20992;-71
2023/07/26 03:43:21;;;;;;;8.30;7.50;;;12.90;99.90;;;;;;4980286;28;20471;-71
2023/07/26 03:45:49;;;;;;;8.90;8.00;;;12.90;99.90;;;;;;4987448;28;20868;-71
2023/07/26 03:48:17;;;;;;;7.83;6.93;;;12.80;99.90;;;;;;4993465;28;20449;-71
2023/07/26 03:50:45;;;;;;;8.83;7.93;;;12.80;99.90;;;;;;4990485;28;20493;-71
2023/07/26 03:53:13;;;;;;;11.07;7.03;;;12.80;99.90;;;;;;4983421;28;20478;-70
2023/07/26 03:55:41;;;;;;;7.57;6.80;;;12.80;99.90;;;;;;4978849;28;20498;-71
2023/07/26 03:58:10;;;;;;;7.73;7.03;;;12.80;99.90;;;;;;4979098;28;20449;-71
2023/07/26 04:00:38;;;;;;;7.57;6.90;;;12.80;99.90;;;;;;4987616;28;20527;-70
2023/07/26 04:03:06;;;;;;;7.77;6.90;;;12.80;99.90;;;;;;4981162;28;21204;-72
2023/07/26 04:05:34;;;;;;;8.23;7.47;;;12.80;99.90;;;;;;4979434;28;20540;-71
2023/07/26 04:08:02;;;;;;;9.53;7.77;;;12.70;99.90;;;;;;4983808;28;20449;-70
2023/07/26 04:10:30;;;;;;;8.13;6.70;;;12.70;99.90;;;;;;4988847;28;20508;-70
2023/07/26 04:12:58;;;;;;;7.63;6.87;;;12.70;99.90;;;;;;4995910;28;20574;-71
2023/07/26 04:15:30;;;;;;;8.17;7.40;;;12.80;99.90;;;;;;4989474;28;20476;-70
2023/07/26 04:17:58;;;;;;;8.80;7.30;;;12.80;99.90;;;;;;4993386;28;20517;-72
2023/07/26 04:20:26;;;;;;;7.63;6.93;;;12.90;99.90;;;;;;4983779;28;20455;-70
2023/07/26 04:22:54;;;;;;;9.37;7.40;;;12.90;99.90;;;;;;4989463;28;20478;-69
2023/07/26 04:25:21;;;;;;;9.93;7.63;;;13.00;99.90;;;;;;4994238;28;20449;-68
2023/07/26 04:27:49;;;;;;;8.57;7.77;;;13.00;99.90;;;;;;4995531;28;20454;-69
2023/07/26 04:30:17;;;;;;;8.00;7.30;;;13.00;99.90;;;;;;4990810;28;20538;-71
2023/07/26 04:32:47;;;;;;;8.87;8.00;;;13.00;99.90;;;;;;4986124;28;20475;-71
2023/07/26 04:35:15;;;;;;;9.73;8.83;;;13.00;99.90;;;;;;4988102;28;21095;-71
2023/07/26 04:37:43;;;;;;;9.70;8.90;;;13.00;99.90;;;;;;4981485;28;20446;-72
2023/07/26 04:40:12;;;;;;;9.70;8.70;;;13.10;99.90;;;;;;4982826;28;20448;-73
2023/07/26 04:42:39;;;;;;;8.13;7.43;;;13.20;99.90;;;;;;4985095;28;21027;-70
2023/07/26 04:45:08;;;;;;;8.53;7.63;;;13.20;99.90;;;;;;4985265;28;20454;-71
2023/07/26 04:47:36;;;;;;;7.23;6.63;;;13.30;99.90;;;;;;4980382;28;20536;-71
2023/07/26 04:50:06;;;;;;;8.60;7.90;;;13.40;99.90;;;;;;4991993;28;20521;-71
2023/07/26 04:52:37;;;;;;;7.80;7.10;;;13.40;99.90;;;;;;4991488;28;20589;-72
2023/07/26 04:55:06;;;;;;;12.20;6.90;;;13.40;99.90;;;;;;4993958;28;20474;-71
2023/07/26 04:57:34;;;;;;;7.90;7.27;;;13.40;99.90;;;;;;4983237;28;20475;-72
2023/07/26 05:00:02;;;;;;;8.97;8.20;;;13.40;99.90;;;;;;4983479;28;20454;-72
2023/07/26 05:02:30;;;;;;;7.80;7.20;;;13.60;99.90;;;;;;4986988;28;20478;-71
2023/07/26 05:04:58;;;;;;;8.37;7.57;;;13.80;99.90;;;;;;4988338;28;20436;-74
2023/07/26 05:07:27;;;;;;;11.20;6.23;;;13.80;99.90;;;;;;4981001;28;20462;-74
2023/07/26 05:09:55;;;;;;;7.80;7.20;;;13.80;99.90;;;;;;4979920;28;21099;-71
2023/07/26 05:12:23;;;;;;;7.77;7.17;;;13.90;99.90;;;;;;4977299;28;20475;-70
2023/07/26 05:14:51;;;;;;;7.53;6.80;;;14.00;99.90;;;;;;4986641;28;20550;-72
2023/07/26 05:17:19;;;;;;;7.43;6.73;;;14.10;99.90;;;;;;4983479;28;20454;-71
2023/07/26 05:19:47;;;;;;;7.77;7.07;;;14.20;99.90;;;;;;4983388;28;20451;-71
2023/07/26 05:22:15;;;;;;;8.20;7.40;;;14.20;99.90;;;;;;4984970;28;20518;-72
2023/07/26 05:24:44;;;;;;;7.10;6.60;;;14.20;99.90;;;;;;4974908;28;20885;-71
2023/07/26 05:27:13;;;;;;;10.57;6.93;;;14.30;99.90;;;;;;4986060;28;20540;-73
2023/07/26 05:29:40;;;;;;;7.60;7.00;;;14.30;99.90;;;;;;4981269;28;20492;-72
2023/07/26 05:32:09;;;;;;;8.27;7.50;;;14.30;99.90;;;;;;4984973;28;20480;-72
2023/07/26 05:34:38;;;;;;;7.80;7.10;;;14.20;99.90;;;;;;4983962;28;20450;-71
2023/07/26 05:37:06;;;;;;;7.80;7.03;;;14.20;99.90;;;;;;4988298;28;20442;-73
2023/07/26 05:39:34;;;;;;;9.07;8.07;;;14.30;99.90;;;;;;4987118;28;20946;-71
2023/07/26 05:42:04;;;;;;;7.20;6.53;;;14.30;99.90;;;;;;4975774;28;20467;-73
2023/07/26 05:44:32;;;;;;;8.43;7.73;;;14.30;99.90;;;;;;4983636;28;20459;-72
2023/07/26 05:46:59;;;;;;;7.40;6.70;;;14.30;99.90;;;;;;4983483;28;20873;-73
2023/07/26 05:49:27;;;;;;;8.07;7.37;;;14.30;99.90;;;;;;4981137;28;20466;-72
2023/07/26 05:51:55;;;;;;;9.40;7.33;;;14.30;99.90;;;;;;4980085;28;20472;-73
2023/07/26 05:54:23;;;;;;;8.20;6.70;;;14.40;99.90;;;;;;4980332;28;20911;-74
2023/07/26 05:56:51;;;;;;;7.83;7.13;;;14.40;99.90;;;;;;4980134;28;20963;-74
2023/07/26 05:59:21;;;;;;;7.00;6.40;;;14.50;99.90;;;;;;4981366;28;20456;-73
2023/07/26 06:01:48;;;;;;;7.30;6.70;;;14.50;99.90;;;;;;4984038;28;20454;-74
2023/07/26 06:04:16;;;;;;;9.13;6.57;;;14.60;99.90;;;;;;4978105;28;20482;-74
2023/07/26 06:06:45;;;;;;;8.13;7.00;;;14.80;99.90;;;;;;4975390;28;20471;-74
2023/07/26 06:09:13;;;;;;;7.50;6.90;;;14.80;99.90;;;;;;4982139;28;21016;-74
2023/07/26 06:11:42;;;;;;;7.57;7.07;;;14.80;99.90;;;;;;4983737;28;20490;-73
2023/07/26 06:14:25;;;;;;;9.07;6.80;;;14.90;99.90;;;;;;4979083;28;20447;-74
2023/07/26 06:16:54;;;;;;;7.70;5.47;;;14.90;99.90;;;;;;4980855;28;21242;-74
2023/07/26 06:19:22;;;;;;;6.90;6.40;;;15.10;99.90;;;;;;4984100;28;20445;-73
2023/07/26 06:21:55;;;;;;;5.60;5.10;;;15.20;99.90;;;;;;4980651;28;20449;-74
2023/07/26 06:24:23;;;;;;;7.57;5.93;;;15.40;99.90;;;;;;4978108;28;21012;-73
2023/07/26 06:26:52;;;;;;;6.00;5.50;;;15.50;99.90;;;;;;4981830;28;20462;-73
2023/07/26 06:29:20;;;;;;;7.23;5.30;;;15.60;99.90;;;;;;4979341;28;20454;-73
2023/07/26 06:31:50;;;;;;;7.50;5.27;;;15.70;99.90;;;;;;4976961;28;20474;-73
2023/07/26 06:34:18;;;;;;;5.40;4.37;;;15.90;99.90;;;;;;4988186;28;20508;-75
2023/07/26 06:36:46;;;;;;;6.03;5.43;;;16.10;99.90;;;;;;4978847;28;20463;-76
2023/07/26 06:39:15;;;;;;;5.57;5.00;;;16.10;99.90;;;;;;4985537;28;20855;-74
2023/07/26 06:41:42;;;;;;;7.43;5.37;;;16.00;99.90;;;;;;4978485;28;20489;-74
2023/07/26 06:44:10;;;;;;;5.40;4.47;;;16.00;99.90;;;;;;4983734;28;20494;-74
2023/07/26 06:46:39;;;;;;;4.67;4.30;;;15.90;99.90;;;;;;4981682;28;20538;-74
2023/07/26 06:49:08;;;;;;;5.83;4.93;;;15.80;99.90;;;;;;4983558;28;20454;-72
2023/07/26 06:51:36;;;;;;;8.90;5.47;;;15.70;99.90;;;;;;4982749;28;20520;-75
2023/07/26 06:54:04;;;;;;;5.20;4.70;;;15.70;99.90;;;;;;4987929;28;20549;-74
2023/07/26 06:56:32;;;;;;;5.10;4.60;;;15.70;99.90;;;;;;4979556;28;20534;-72
2023/07/26 06:59:01;;;;;;;5.87;4.30;;;15.90;99.90;;;;;;4978069;28;20459;-74
2023/07/26 07:01:29;;;;;;;6.10;4.00;;;16.00;99.90;;;;;;4978660;28;20451;-75
2023/07/26 07:03:57;;;;;;;4.27;3.87;;;16.10;99.90;;;;;;4986727;28;20474;-74
2023/07/26 07:06:42;;;;;;;6.53;4.33;;;16.00;99.90;;;;;;4982252;28;20451;-74
2023/07/26 07:09:10;;;;;;;5.53;4.03;;;15.90;99.90;;;;;;4974472;28;20927;-75
2023/07/26 07:11:38;;;;;;;5.93;4.53;;;15.90;99.90;;;;;;4974371;28;20533;-74
2023/07/26 07:14:06;;;;;;;5.57;5.10;;;15.70;99.90;;;;;;4982116;28;20554;-75
2023/07/26 07:16:37;;;;;;;7.17;5.00;;;15.30;99.90;;;;;;4984924;28;20462;-76
2023/07/26 07:19:06;;;;;;;7.10;5.60;;;14.80;99.90;;;;;;4982182;28;20463;-73
2023/07/26 07:21:34;;;;;;;8.30;5.97;;;14.50;99.90;;;;;;4981107;28;20480;-73
2023/07/26 07:24:04;;;;;;;6.00;5.50;;;14.30;99.90;;;;;;4985413;28;20445;-74
2023/07/26 07:26:32;;;;;;;8.30;6.57;;;14.10;99.90;;;;;;4979372;28;20670;-74
2023/07/26 07:29:00;;;;;;;5.93;5.43;;;14.10;99.90;;;;;;4985274;28;20840;-76
2023/07/26 07:31:28;;;;;;;7.50;5.70;;;14.00;99.90;;;;;;4986571;28;20478;-75
2023/07/26 07:33:56;;;;;;;7.00;5.93;;;14.00;99.90;;;;;;4990424;28;20484;-75
2023/07/26 07:36:24;;;;;;;7.00;6.33;;;13.90;99.90;;;;;;4984368;28;20456;-73
2023/07/26 07:38:52;;;;;;;7.30;6.70;;;13.90;99.90;;;;;;4980970;28;20545;-75
2023/07/26 07:41:21;;;;;;;6.70;6.10;;;13.90;99.90;;;;;;4976594;28;20482;-75
2023/07/26 07:43:49;;;;;;;7.40;6.57;;;13.80;99.90;;;;;;4978444;28;20554;-73
2023/07/26 07:46:17;;;;;;;6.97;6.47;;;13.90;99.90;;;;;;4980710;28;21006;-75
2023/07/26 07:48:45;;;;;;;6.50;5.90;;;14.00;99.90;;;;;;4983977;28;20451;-75
2023/07/26 07:51:13;;;;;;;6.53;6.03;;;14.10;99.90;;;;;;4985707;28;20480;-75
2023/07/26 07:53:41;;;;;;;7.17;6.57;;;14.10;99.90;;;;;;4984145;28;21074;-75
2023/07/26 07:56:09;;;;;;;8.73;6.47;;;14.30;99.90;;;;;;4975787;28;20477;-76
2023/07/26 07:58:38;;;;;;;8.57;6.10;;;14.30;99.90;;;;;;4988125;28;20464;-75
2023/07/26 08:01:06;;;;;;;8.80;5.83;;;14.30;99.90;;;;;;4981450;28;20493;-74
2023/07/26 08:03:34;;;;;;;6.40;5.90;;;14.30;99.90;;;;;;4986613;28;20480;-76
2023/07/26 08:06:01;;;;;;;7.40;6.30;;;14.40;99.90;;;;;;4988461;28;20500;-75
2023/07/26 08:08:29;;;;;;;6.50;6.00;;;14.40;99.90;;;;;;4990948;28;20464;-75
2023/07/26 08:10:57;;;;;;;6.23;5.63;;;14.50;99.90;;;;;;4988630;28;20459;-74
2023/07/26 08:13:25;;;;;;;7.70;6.23;;;14.60;99.90;;;;;;4983087;28;20583;-75
2023/07/26 08:15:57;;;;;;;6.53;5.83;;;14.70;99.90;;;;;;4979848;28;21025;-75
2023/07/26 08:18:27;;;;;;;7.63;5.30;;;14.70;99.90;;;;;;4980497;28;20453;-75
2023/07/26 08:20:55;;;;;;;5.40;4.90;;;14.90;99.90;;;;;;4982068;28;20450;-74
2023/07/26 08:23:23;;;;;;;5.93;5.43;;;15.00;99.90;;;;;;4991577;28;20479;-76
2023/07/26 08:25:51;;;;;;;5.57;5.13;;;15.20;99.90;;;;;;4974137;28;20448;-76
2023/07/26 08:28:19;;;;;;;6.80;5.57;;;15.30;99.90;;;;;;4983888;28;20451;-75
2023/07/26 08:30:48;;;;;;;5.70;5.20;;;15.30;99.90;;;;;;4982471;28;20949;-75
2023/07/26 08:33:17;;;;;;;6.87;5.40;;;15.40;99.90;;;;;;4978554;28;20485;-75
2023/07/26 08:35:45;;;;;;;5.40;4.90;;;15.40;99.90;;;;;;4979108;28;21114;-75
2023/07/26 08:38:13;;;;;;;6.30;5.00;;;15.30;99.90;;;;;;4992351;28;20516;-72
2023/07/26 08:40:45;;;;;;;6.00;5.50;;;15.30;99.90;;;;;;4987544;28;20461;-76
2023/07/26 08:43:14;;;;;;;7.30;6.70;;;15.30;99.90;;;;;;4979074;28;20468;-76
2023/07/26 08:45:43;;;;;;;5.73;5.23;;;15.30;99.90;;;;;;4984620;28;20453;-75
2023/07/26 08:48:11;;;;;;;6.43;5.17;;;15.40;99.90;;;;;;4974647;28;20456;-75
2023/07/26 08:50:41;;;;;;;4.10;3.37;;;15.60;99.90;;;;;;4985944;28;20837;-76
2023/07/26 08:53:10;;;;;;;3.30;3.03;;;15.70;99.90;;;;;;4986382;28;20490;-75
2023/07/26 08:55:38;;;;;;;4.60;3.60;;;16.00;99.90;;;;;;4979285;28;20466;-75
2023/07/26 08:58:06;;;;;;;3.57;2.90;;;16.40;99.90;;;;;;4980221;28;20879;-76
2023/07/26 09:00:34;;;;;;;2.37;2.17;;;16.80;99.90;;;;;;4983279;28;20482;-76
2023/07/26 09:03:04;;;;;;;3.33;2.30;;;17.10;99.90;;;;;;4976573;28;20868;-76
2023/07/26 09:05:32;;;;;;;2.77;2.03;;;17.40;99.90;;;;;;4976493;28;20873;-75
2023/07/26 09:08:01;;;;;;;3.50;1.87;;;17.70;99.90;;;;;;4985703;28;21230;-76
2023/07/26 09:10:31;;;;;;;2.20;2.00;;;18.20;99.90;;;;;;4985192;28;20455;-75
2023/07/26 09:13:10;;;;;;;2.70;2.00;;;18.50;99.90;;;;;;4983491;28;20563;-75
2023/07/26 09:15:38;;;;;;;2.20;2.10;;;19.00;99.90;;;;;;4974566;28;20453;-75
2023/07/26 09:18:08;;;;;;;2.50;1.87;;;19.10;99.90;;;;;;4983606;28;20891;-75
2023/07/26 09:20:37;;;;;;;2.37;2.17;;;19.00;99.90;;;;;;4978878;28;20455;-76
2023/07/26 09:23:08;;;;;;;4.00;2.00;;;18.70;99.90;;;;;;4977438;28;20557;-76
2023/07/26 09:25:38;;;;;;;2.23;2.03;;;18.30;99.90;;;;;;4973674;28;21150;-75
2023/07/26 09:28:07;;;;;;;2.53;1.90;;;18.00;99.90;;;;;;4977889;28;20934;-75
2023/07/26 09:30:36;;;;;;;4.50;1.67;;;17.50;99.90;;;;;;4975906;28;21308;-75
2023/07/26 09:33:06;;;;;;;5.40;2.63;;;17.00;99.90;;;;;;4981683;28;20590;-75
2023/07/26 09:35:42;;;;;;;2.77;2.30;;;16.60;99.90;;;;;;4988282;28;20894;-74
2023/07/26 09:38:11;;;;;;;2.23;2.03;;;16.30;99.90;;;;;;4980957;28;20455;-76
2023/07/26 09:40:40;;;;;;;1.73;1.63;;;16.00;99.90;;;;;;4976966;28;20587;-75
2023/07/26 09:43:08;;;;;;;2.60;1.70;;;16.00;99.90;;;;;;4976307;28;20468;-72
2023/07/26 09:45:36;;;;;;;2.10;2.00;;;15.90;99.90;;;;;;4977263;28;20470;-75
2023/07/26 09:48:09;;;;;;;1.17;1.10;;;15.90;99.90;;;;;;4974336;28;20995;-76
2023/07/26 09:51:00;;;;;;;1.67;1.57;;;16.00;99.90;;;;;;4959605;28;20443;-75
2023/07/26 09:53:49;;;;;;;1.20;1.10;;;16.10;99.90;;;;;;4952958;28;20548;-73
2023/07/26 09:56:18;;;;;;;1.70;1.20;;;16.20;99.90;;;;;;4956527;28;20512;-74
2023/07/26 09:58:49;;;;;;;1.63;1.20;;;16.10;99.90;;;;;;4962310;28;20447;-75
2023/07/26 10:01:19;;;;;;;2.53;1.00;;;16.00;99.90;;;;;;4956994;28;20554;-72
2023/07/26 10:03:51;;;;;;;1.30;1.20;;;15.90;99.90;;;;;;4955777;28;20616;-74
2023/07/26 10:06:20;;;;;;;1.43;1.10;;;15.80;99.90;;;;;;4961679;28;20452;-76
2023/07/26 10:08:50;;;;;;;1.50;1.30;;;15.70;99.90;;;;;;4968132;28;20798;-72
2023/07/26 10:11:24;;;;;;;2.10;1.40;;;15.50;99.90;;;;;;4980596;28;21033;-71
2023/07/26 10:13:53;;;;;;;2.93;1.13;;;15.40;99.90;;;;;;4981140;28;20915;-73
2023/07/26 10:16:21;;;;;;;1.40;1.30;;;15.50;99.90;;;;;;4975191;28;20456;-75
2023/07/26 10:18:52;;;;;;;2.80;1.53;;;15.60;99.90;;;;;;4983778;28;20981;-73
2023/07/26 10:21:22;;;;;;;1.60;1.50;;;15.70;99.90;;;;;;4983243;28;20489;-75
2023/07/26 10:23:52;;;;;;;1.20;1.10;;;16.00;99.90;;;;;;4976181;28;20475;-71
2023/07/26 10:26:21;;;;;;;1.30;1.20;;;16.70;99.90;;;;;;4984567;28;21013;-74
2023/07/26 10:28:51;;;;;;;5.30;3.73;;;17.30;99.90;;;;;;4981591;28;20453;-72
2023/07/26 10:31:23;;;;;;;1.63;1.53;;;17.50;99.90;;;;;;4985303;28;20451;-73
2023/07/26 10:33:54;;;;;;;2.13;1.93;;;17.40;99.90;;;;;;4976593;28;20554;-73
2023/07/26 10:36:22;;;;;;;2.40;1.70;;;17.10;99.90;;;;;;4989511;28;20443;-74
2023/07/26 10:38:53;;;;;;;1.70;1.50;;;16.90;99.90;;;;;;4980737;28;20849;-74
2023/07/26 10:41:23;;;;;;;2.20;1.53;;;16.60;99.90;;;;;;4988039;28;20509;-73
2023/07/26 10:44:00;;;;;;;2.70;2.00;;;16.40;99.90;;;;;;4978182;28;20518;-74
2023/07/26 10:46:29;;;;;;;3.07;1.50;;;16.80;99.90;;;;;;4985223;28;20451;-75
2023/07/26 10:48:57;;;;;;;2.20;1.90;;;17.20;99.90;;;;;;4980803;28;20513;-76
2023/07/26 10:51:28;;;;;;;1.57;1.40;;;17.90;99.90;;;;;;4985586;28;20451;-74
2023/07/26 10:53:58;;;;;;;1.60;1.50;;;18.50;99.90;;;;;;4981823;28;20490;-75
2023/07/26 10:56:27;;;;;;;2.03;1.83;;;18.90;99.90;;;;;;4978708;28;20533;-74
2023/07/26 10:59:18;;;;;;;3.70;1.93;;;19.10;99.90;;;;;;4981839;28;20567;-76
2023/07/26 11:01:47;;;;;;;4.13;2.00;;;19.60;99.90;;;;;;4983775;28;20489;-75
2023/07/26 11:04:16;;;;;;;1.77;1.67;;;19.30;99.90;;;;;;4989310;28;20447;-74
2023/07/26 11:06:52;;;;;;;3.93;2.20;;;19.00;99.90;;;;;;4978208;28;20454;-76
2023/07/26 11:09:27;;;;;;;2.73;1.93;;;18.40;99.90;;;;;;4978234;28;20461;-75
2023/07/26 11:11:56;;;;;;;1.97;1.87;;;17.50;99.90;;;;;;4980986;28;20462;-74
2023/07/26 11:14:26;;;;;;;2.47;2.27;;;17.40;99.90;;;;;;4982348;28;20562;-74
2023/07/26 11:16:54;;;;;;;2.07;1.90;;;17.70;99.90;;;;;;4981064;28;20449;-71
2023/07/26 11:19:25;;;;;;;2.23;2.13;;;18.40;99.90;;;;;;4977954;28;21042;-73
2023/07/26 11:22:02;;;;;;;3.50;2.20;;;19.00;99.90;;;;;;4981486;28;20447;-75
2023/07/26 11:24:32;;;;;;;3.30;2.23;;;19.70;99.90;;;;;;4980614;28;20445;-75
2023/07/26 11:27:05;;;;;;;3.20;2.23;;;20.20;99.90;;;;;;4988508;28;20446;-75
2023/07/26 11:29:33;;;;;;;2.73;1.90;;;20.10;99.90;;;;;;4982367;28;20455;-77
2023/07/26 11:32:01;;;;;;;2.17;1.90;;;19.80;99.90;;;;;;4977136;28;20561;-74
2023/07/26 11:34:29;;;;;;;3.27;2.33;;;20.30;99.90;;;;;;4983159;28;20481;-74
2023/07/26 11:37:06;;;;;;;2.50;2.30;;;20.80;99.90;;;;;;4973440;28;21338;-75
2023/07/26 11:39:36;;;;;;;5.80;2.40;;;21.10;97.60;;;;;;4985791;28;20932;-73
2023/07/26 11:42:04;;;;;;;2.93;2.53;;;20.90;95.10;;;;;;4977727;28;20977;-72
2023/07/26 11:44:33;;;;;;;4.13;2.50;;;20.80;93.90;;;;;;4989608;28;20478;-74
2023/07/26 11:47:02;;;;;;;4.10;2.63;;;20.30;92.70;;;;;;4981537;28;20483;-72
2023/07/26 11:49:31;;;;;;;2.70;2.50;;;19.80;93.50;;;;;;4986759;28;20451;-72
2023/07/26 11:51:59;;;;;;;2.90;2.50;;;19.60;93.90;;;;;;4987798;28;20462;-74
2023/07/26 11:54:28;;;;;;;3.20;2.20;;;19.70;94.90;;;;;;4986067;28;20976;-73
2023/07/26 11:56:58;;;;;;;3.80;2.50;;;19.90;96.00;;;;;;4981878;28;20487;-73
2023/07/26 11:59:27;;;;;;;4.50;2.37;;;20.80;94.20;;;;;;4976394;28;20455;-74
2023/07/26 12:01:55;;;;;;;2.97;2.63;;;21.50;91.50;;;;;;4983085;28;20451;-71
2023/07/26 12:04:23;;;;;;;2.50;2.30;;;21.50;90.20;;;;;;4984331;28;20435;-71
2023/07/26 12:06:51;;;;;;;3.43;2.07;;;21.50;91.30;;;;;;4983339;28;20468;-71
2023/07/26 12:09:19;;;;;;;5.10;2.40;;;21.80;87.50;;;;;;4982087;28;20554;-71
2023/07/26 12:11:50;;;;;;;3.43;2.20;;;21.60;85.70;;;;;;4978975;28;20439;-73
2023/07/26 12:14:20;;;;;;;2.77;2.53;;;21.30;86.90;;;;;;4981273;28;20470;-72
2023/07/26 12:16:50;;;;;;;3.40;2.40;;;20.80;84.90;;;;;;4982534;28;20440;-74
2023/07/26 12:19:21;;;;;;;2.93;2.10;;;20.30;89.10;;;;;;4981766;28;20474;-70
2023/07/26 12:21:50;;;;;;;2.60;2.40;;;20.90;90.80;;;;;;4981861;28;20809;-72
2023/07/26 12:24:19;;;;;;;2.67;2.40;;;21.20;88.00;;;;;;4982503;28;20444;-71
2023/07/26 12:26:48;;;;;;;2.50;2.30;;;20.70;85.20;;;;;;4981000;28;20524;-73
2023/07/26 12:29:17;;;;;;;3.10;2.80;;;20.20;87.80;;;;;;4980452;28;20467;-77
2023/07/26 12:31:46;;;;;;;2.60;2.40;;;20.00;88.10;;;;;;4979640;28;20538;-75
2023/07/26 12:34:15;;;;;;;5.50;2.97;;;20.00;86.10;;;;;;4980238;28;20518;-74
2023/07/26 12:36:50;;;;;;;2.90;2.50;;;20.00;86.80;;;;;;4980085;28;21138;-73
2023/07/26 12:39:24;;;;;;;3.23;2.20;;;19.90;86.60;;;;;;4980207;28;20447;-73
2023/07/26 12:41:53;;;;;;;5.17;2.50;;;20.20;86.20;;;;;;4982316;28;20553;-76
2023/07/26 12:44:21;;;;;;;5.10;2.47;;;20.60;84.40;;;;;;4981783;28;20474;-73
2023/07/26 12:46:50;;;;;;;2.90;2.30;;;20.80;85.00;;;;;;4981607;28;20447;-73
2023/07/26 12:49:21;;;;;;;3.10;2.30;;;20.70;83.20;;;;;;4982735;28;20459;-73
2023/07/26 12:51:49;;;;;;;3.40;2.47;;;20.50;86.70;;;;;;4985460;28;20455;-73